Woodridge, Queensland

9:11 AM AEST on February 02, 2015 (GMT +1000)
Rochedale South | Change Station
CLOSE
Current Station
Personal Weather Station
Location: Rochedale South, QUEENSLAND
Elevation: 141 ft
Nearby Weather Stations

Elev 141 ft 27.60 °S, 153.12 °E | Updated 4 seconds ago

Scattered Clouds
Scattered Clouds
79.3 °F
Feels Like 82 °F
N
1.6
Wind Variable Wind from WNW
Gusts 6.9 mph

Today
High -- | Low -- °F
--% Chance of Precip.
Yesterday
High -- | Low -- °F
Precip. -- in
5:20 AM 6:41 PM
Waxing Gibbous, 96% visible
Pressure 29.83 in
Visibility 6.2 miles
Clouds Scattered Clouds 3300 ft
Heat Index 82 °F
Dew Point 70 °F
Humidity 72%
Rainfall 0.00 in
Snow Depth Not available.
UV 5 out of 12
Pollen Not available.
Air Quality Not available.
Flu Activity Not available.
METAR YAMB 012300Z 20013KT 9999 SCT033 27/18 Q1010 INTER 0000/0200 3000 SHRA BKN015

More Conditions Fewer Conditions

Pressure 29.83 in
Visibility 6.2 miles
Clouds Scattered Clouds 3300 ft
Heat Index 82 °F
Dew Point 70 °F
Humidity 72%
Rainfall 0.00 in
Snow Depth Not available.
UV 5 out of 12
Pollen Not available.
Air Quality Not available.
Flu Activity Not available.
METAR YAMB 012300Z 20013KT 9999 SCT033 27/18 Q1010 INTER 0000/0200 3000 SHRA BKN015

More Conditions Fewer Conditions

10-Day Weather Forecast

Almanac

Astronomy

Feb. 02, 2015 Rise Set
Actual Time
Civil Twilight
Nautical Twilight
Astronomical Twilight
Moon
Length of Visible Light
Length of Day
Tomorrow will be .
, % of the Moon is Illuminated

Today's Extremes

Country Highs Country Lows

Community

WunderPhotos

Upload Photos

1,792,603 photos uploaded!

WunderBlogs® & News

Nearby

Air Quality

  Air Quality AQ Index Pollutant
Not available.

Snow Depth

Station Depth Elevation

Earthquake Activity

City Distance Mag. Time & Date
Minimum magnitude displayed is 2.5.

Coastal Water Temperatures

Place Temperature

Nearby Weather Stations